Aviation Digital Data Service (ADDS)

Output produced by METARs form (1933 UTC 21 September 2021)
found at http://www.aviationweather.gov/metar/data/
 
KEYW 211732Z 2118/2218 10006KT P6SM VCSH SCT025 SCT050 
     FM220200 08007KT P6SM SCT020